createdAt,value
2023-07-11T00:00:32.524Z,1017.335919096
2023-07-11T00:01:32.640Z,1017.2343277320001
2023-07-11T00:02:32.560Z,1017.132736368
2023-07-11T00:03:32.272Z,1017.43751046
2023-07-11T00:04:32.523Z,1017.132736368
2023-07-11T00:05:32.628Z,1017.43751046
2023-07-11T00:06:32.600Z,1017.031145004
2023-07-11T00:07:32.267Z,1017.132736368
2023-07-11T00:08:32.549Z,1017.43751046
2023-07-11T00:09:32.542Z,1017.132736368
2023-07-11T00:10:32.526Z,1017.132736368
2023-07-11T00:11:32.216Z,1017.031145004
2023-07-11T00:12:32.512Z,1017.132736368
2023-07-11T00:13:32.528Z,1017.031145004
2023-07-11T00:14:32.495Z,1017.132736368
2023-07-11T00:15:32.223Z,1017.43751046
2023-07-11T00:16:32.555Z,1017.132736368
2023-07-11T00:17:32.622Z,1017.2343277320001
2023-07-11T00:18:32.524Z,1017.2343277320001
2023-07-11T00:19:32.207Z,1017.335919096
2023-07-11T00:20:32.523Z,1017.335919096
2023-07-11T00:21:32.609Z,1017.132736368
2023-07-11T00:22:32.539Z,1017.335919096
2023-07-11T00:23:32.223Z,1017.2343277320001
2023-07-11T00:24:32.519Z,1017.2343277320001
2023-07-11T00:25:32.553Z,1017.2343277320001
2023-07-11T00:26:32.489Z,1017.132736368
2023-07-11T00:27:32.195Z,1017.2343277320001
2023-07-11T00:28:32.534Z,1017.539101824
2023-07-11T00:29:32.515Z,1017.43751046
2023-07-11T00:30:32.547Z,1017.335919096
2023-07-11T00:31:32.192Z,1017.2343277320001
2023-07-11T00:32:32.531Z,1017.2343277320001
2023-07-11T00:33:32.512Z,1017.43751046
2023-07-11T00:34:32.541Z,1017.132736368
2023-07-11T00:35:32.166Z,1017.2343277320001
2023-07-11T00:36:32.521Z,1017.335919096
2023-07-11T00:37:32.515Z,1017.2343277320001
2023-07-11T00:38:32.520Z,1017.2343277320001
2023-07-11T00:39:32.212Z,1017.031145004
2023-07-11T00:40:32.505Z,1017.335919096
2023-07-11T00:41:32.508Z,1017.132736368
2023-07-11T00:42:32.584Z,1017.132736368
2023-07-11T00:43:32.210Z,1017.031145004
2023-07-11T00:44:32.508Z,1017.2343277320001
2023-07-11T00:45:32.520Z,1017.2343277320001
2023-07-11T00:46:32.515Z,1017.132736368
2023-07-11T00:47:32.286Z,1017.132736368
2023-07-11T00:48:32.572Z,1017.132736368
2023-07-11T00:49:32.504Z,1017.132736368
2023-07-11T00:50:32.532Z,1017.132736368
2023-07-11T00:51:32.121Z,1017.2343277320001
2023-07-11T00:52:32.535Z,1017.132736368
2023-07-11T00:53:32.527Z,1017.132736368
2023-07-11T00:54:32.523Z,1017.335919096
2023-07-11T00:55:32.165Z,1017.031145004
2023-07-11T00:56:32.540Z,1017.2343277320001
2023-07-11T00:57:32.565Z,1017.2343277320001
2023-07-11T00:58:32.538Z,1016.827962276
2023-07-11T00:59:32.193Z,1017.132736368
2023-07-11T01:00:32.534Z,1017.335919096
2023-07-11T01:01:32.611Z,1017.335919096
2023-07-11T01:02:32.597Z,1017.2343277320001
2023-07-11T01:03:32.305Z,1017.2343277320001
2023-07-11T01:04:32.551Z,1017.132736368
2023-07-11T01:05:32.541Z,1017.031145004
2023-07-11T01:06:32.492Z,1017.132736368
2023-07-11T01:07:32.119Z,1017.031145004
2023-07-11T01:08:32.494Z,1017.031145004
2023-07-11T01:09:32.490Z,1017.2343277320001
2023-07-11T01:10:32.508Z,1017.031145004
2023-07-11T01:11:32.138Z,1017.132736368
2023-07-11T01:12:32.502Z,1016.827962276
2023-07-11T01:13:32.538Z,1017.031145004
2023-07-11T01:14:32.582Z,1017.031145004
2023-07-11T01:15:32.136Z,1016.827962276
2023-07-11T01:16:32.606Z,1017.031145004
2023-07-11T01:17:32.551Z,1017.2343277320001
2023-07-11T01:18:32.535Z,1017.031145004
2023-07-11T01:19:32.122Z,1017.031145004
2023-07-11T01:20:32.525Z,1016.9295536400001
2023-07-11T01:21:32.546Z,1017.031145004
2023-07-11T01:22:32.476Z,1016.9295536400001
2023-07-11T01:23:32.126Z,1017.031145004
2023-07-11T01:24:32.504Z,1017.031145004
2023-07-11T01:25:32.528Z,1017.031145004
2023-07-11T01:26:32.531Z,1017.2343277320001
2023-07-11T01:27:32.083Z,1017.031145004
2023-07-11T01:28:32.485Z,1017.2343277320001
2023-07-11T01:29:32.508Z,1017.031145004
2023-07-11T01:30:32.603Z,1016.9295536400001
2023-07-11T01:31:32.104Z,1017.132736368
2023-07-11T01:32:32.523Z,1016.9295536400001
2023-07-11T01:33:32.515Z,1017.031145004
2023-07-11T01:34:32.587Z,1017.132736368
2023-07-11T01:35:32.098Z,1017.132736368
2023-07-11T01:36:32.487Z,1017.2343277320001
2023-07-11T01:37:32.505Z,1017.031145004
2023-07-11T01:38:32.501Z,1017.031145004
2023-07-11T01:39:32.079Z,1016.9295536400001
2023-07-11T01:40:32.699Z,1016.9295536400001
2023-07-11T01:41:32.649Z,1016.9295536400001
2023-07-11T01:42:32.641Z,1017.132736368
2023-07-11T01:43:32.197Z,1017.031145004
2023-07-11T01:44:32.628Z,1016.9295536400001
2023-07-11T01:45:32.607Z,1016.9295536400001
2023-07-11T01:46:32.690Z,1017.132736368
2023-07-11T01:47:32.303Z,1017.031145004
2023-07-11T01:48:32.615Z,1017.132736368
2023-07-11T01:49:32.608Z,1017.031145004
2023-07-11T01:50:32.604Z,1016.9295536400001
2023-07-11T01:51:32.274Z,1017.335919096
2023-07-11T01:52:32.650Z,1017.031145004
2023-07-11T01:53:32.687Z,1017.132736368
2023-07-11T01:54:32.607Z,1017.031145004
2023-07-11T01:55:32.131Z,1016.827962276
2023-07-11T01:56:32.667Z,1016.9295536400001
2023-07-11T01:57:32.637Z,1017.031145004
2023-07-11T01:58:32.598Z,1016.9295536400001
2023-07-11T01:59:32.213Z,1017.031145004
2023-07-11T02:00:32.621Z,1017.031145004
2023-07-11T02:01:32.547Z,1017.031145004
2023-07-11T02:02:32.561Z,1016.9295536400001
2023-07-11T02:03:32.211Z,1017.031145004
2023-07-11T02:04:32.484Z,1016.726370912
2023-07-11T02:05:32.520Z,1017.031145004
2023-07-11T02:06:32.492Z,1016.827962276
2023-07-11T02:07:32.017Z,1017.031145004
2023-07-11T02:08:32.545Z,1016.9295536400001
2023-07-11T02:09:32.508Z,1016.827962276
2023-07-11T02:10:32.538Z,1016.9295536400001
2023-07-11T02:11:32.006Z,1016.9295536400001
2023-07-11T02:12:32.517Z,1017.132736368
2023-07-11T02:13:32.519Z,1016.9295536400001
2023-07-11T02:14:32.476Z,1016.9295536400001
2023-07-11T02:15:32.032Z,1016.9295536400001
2023-07-11T02:16:32.618Z,1016.9295536400001
2023-07-11T02:17:32.646Z,1016.9295536400001
2023-07-11T02:18:32.523Z,1017.031145004
2023-07-11T02:19:32.068Z,1016.827962276
2023-07-11T02:20:32.494Z,1016.827962276
2023-07-11T02:21:32.501Z,1016.827962276
2023-07-11T02:22:32.556Z,1016.9295536400001
2023-07-11T02:23:32.007Z,1017.031145004
2023-07-11T02:24:32.502Z,1016.827962276
2023-07-11T02:25:32.515Z,1016.9295536400001
2023-07-11T02:26:32.496Z,1016.9295536400001
2023-07-11T02:27:31.998Z,1016.827962276
2023-07-11T02:28:32.506Z,1016.9295536400001
2023-07-11T02:29:32.507Z,1016.9295536400001
2023-07-11T02:30:32.539Z,1016.9295536400001
2023-07-11T02:31:32.131Z,1016.9295536400001
2023-07-11T02:32:32.537Z,1016.9295536400001
2023-07-11T02:33:32.482Z,1016.9295536400001
2023-07-11T02:34:32.490Z,1016.9295536400001
2023-07-11T02:35:32.002Z,1016.9295536400001
2023-07-11T02:36:32.519Z,1016.827962276
2023-07-11T02:37:32.498Z,1017.031145004
2023-07-11T02:38:32.636Z,1017.031145004
2023-07-11T02:39:32.005Z,1017.031145004
2023-07-11T02:40:32.542Z,1016.9295536400001
2023-07-11T02:41:32.542Z,1016.827962276
2023-07-11T02:42:32.514Z,1017.031145004
2023-07-11T02:43:31.966Z,1017.031145004
2023-07-11T02:44:32.623Z,1017.031145004
2023-07-11T02:45:32.501Z,1016.9295536400001
2023-07-11T02:46:32.592Z,1017.132736368
2023-07-11T02:47:33.031Z,1016.827962276
2023-07-11T02:48:32.499Z,1017.031145004
2023-07-11T02:49:32.529Z,1016.9295536400001
2023-07-11T02:50:32.522Z,1016.9295536400001
2023-07-11T02:51:32.001Z,1017.031145004
2023-07-11T02:52:32.516Z,1017.031145004
2023-07-11T02:53:32.495Z,1016.827962276
2023-07-11T02:54:32.505Z,1016.9295536400001
2023-07-11T02:55:31.990Z,1017.031145004
2023-07-11T02:56:32.470Z,1017.132736368
2023-07-11T02:57:32.500Z,1017.031145004
2023-07-11T02:58:32.513Z,1016.9295536400001
2023-07-11T02:59:31.979Z,1016.9295536400001
2023-07-11T03:00:32.531Z,1017.132736368
2023-07-11T03:01:32.509Z,1017.132736368
2023-07-11T03:02:32.538Z,1016.827962276
2023-07-11T03:03:31.998Z,1016.827962276
2023-07-11T03:04:32.465Z,1017.031145004
2023-07-11T03:05:32.562Z,1016.9295536400001
2023-07-11T03:06:32.537Z,1017.132736368
2023-07-11T03:07:31.974Z,1017.132736368
2023-07-11T03:08:32.502Z,1016.827962276
2023-07-11T03:09:32.500Z,1017.031145004
2023-07-11T03:10:32.548Z,1016.9295536400001
2023-07-11T03:11:32.106Z,1016.9295536400001
2023-07-11T03:12:32.800Z,1017.132736368
2023-07-11T03:13:32.665Z,1017.031145004
2023-07-11T03:14:32.520Z,1017.031145004
2023-07-11T03:15:32.053Z,1017.031145004
2023-07-11T03:16:32.723Z,1017.2343277320001
2023-07-11T03:17:32.826Z,1016.9295536400001
2023-07-11T03:18:32.629Z,1017.132736368
2023-07-11T03:19:32.098Z,1017.132736368
2023-07-11T03:20:32.488Z,1017.031145004
2023-07-11T03:21:32.609Z,1017.132736368
2023-07-11T03:22:32.671Z,1016.827962276
2023-07-11T03:23:32.078Z,1016.827962276
2023-07-11T03:24:32.629Z,1016.9295536400001
2023-07-11T03:25:32.649Z,1016.9295536400001
2023-07-11T03:26:32.510Z,1017.031145004
2023-07-11T03:27:32.090Z,1017.031145004
2023-07-11T03:28:32.512Z,1016.6247795480001
2023-07-11T03:29:32.496Z,1017.031145004
2023-07-11T03:30:32.492Z,1017.031145004
2023-07-11T03:31:31.898Z,1017.031145004
2023-07-11T03:32:32.540Z,1016.9295536400001
2023-07-11T03:33:32.655Z,1016.9295536400001
2023-07-11T03:34:32.657Z,1017.031145004
2023-07-11T03:35:32.059Z,1017.031145004
2023-07-11T03:36:32.624Z,1016.827962276
2023-07-11T03:37:32.503Z,1017.031145004
2023-07-11T03:38:32.647Z,1016.9295536400001
2023-07-11T03:39:31.886Z,1016.9295536400001
2023-07-11T03:40:32.604Z,1017.132736368
2023-07-11T03:41:32.585Z,1017.031145004
2023-07-11T03:42:32.605Z,1016.9295536400001
2023-07-11T03:43:32.005Z,1016.9295536400001
2023-07-11T03:44:32.636Z,1017.2343277320001
2023-07-11T03:45:32.590Z,1016.9295536400001
2023-07-11T03:46:32.562Z,1016.726370912
2023-07-11T03:47:32.028Z,1016.726370912
2023-07-11T03:48:32.509Z,1017.132736368
2023-07-11T03:49:32.512Z,1017.132736368
2023-07-11T03:50:32.497Z,1016.9295536400001
2023-07-11T03:51:32.044Z,1016.9295536400001
2023-07-11T03:52:32.546Z,1017.132736368
2023-07-11T03:53:32.633Z,1017.031145004
2023-07-11T03:54:32.490Z,1016.726370912
2023-07-11T03:55:32.032Z,1016.726370912
2023-07-11T03:56:32.507Z,1017.132736368
2023-07-11T03:57:32.501Z,1017.031145004
2023-07-11T03:58:32.529Z,1017.132736368
2023-07-11T03:59:31.887Z,1017.132736368
2023-07-11T04:00:32.562Z,1016.827962276
2023-07-11T04:01:32.529Z,1016.9295536400001
2023-07-11T04:02:32.509Z,1016.9295536400001
2023-07-11T04:03:32.000Z,1016.9295536400001
2023-07-11T04:04:32.513Z,1016.9295536400001
2023-07-11T04:05:32.495Z,1017.031145004
2023-07-11T04:06:32.473Z,1017.132736368
2023-07-11T04:07:31.871Z,1017.132736368
2023-07-11T04:08:32.501Z,1016.9295536400001
2023-07-11T04:09:32.483Z,1017.031145004
2023-07-11T04:10:32.492Z,1017.031145004
2023-07-11T04:11:31.894Z,1017.031145004
2023-07-11T04:12:32.514Z,1017.031145004
2023-07-11T04:13:32.514Z,1017.031145004
2023-07-11T04:14:32.507Z,1017.031145004
2023-07-11T04:15:31.834Z,1017.031145004
2023-07-11T04:16:32.488Z,1016.9295536400001
2023-07-11T04:17:32.537Z,1016.9295536400001
2023-07-11T04:18:32.505Z,1017.031145004
2023-07-11T04:19:31.822Z,1017.031145004
2023-07-11T04:20:32.496Z,1017.031145004
2023-07-11T04:21:32.498Z,1016.9295536400001
2023-07-11T04:22:32.496Z,1016.9295536400001
2023-07-11T04:23:31.870Z,1016.9295536400001
2023-07-11T04:24:32.474Z,1016.9295536400001
2023-07-11T04:25:32.484Z,1016.9295536400001
2023-07-11T04:26:32.474Z,1016.827962276
2023-07-11T04:27:31.883Z,1016.827962276
2023-07-11T04:28:32.480Z,1016.9295536400001
2023-07-11T04:29:32.469Z,1016.726370912
2023-07-11T04:30:32.698Z,1016.9295536400001
2023-07-11T04:31:31.855Z,1016.9295536400001
2023-07-11T04:32:32.534Z,1016.9295536400001
2023-07-11T04:33:32.484Z,1016.9295536400001
2023-07-11T04:34:32.469Z,1016.9295536400001
2023-07-11T04:35:31.769Z,1016.9295536400001
2023-07-11T04:36:32.532Z,1017.031145004
2023-07-11T04:37:32.480Z,1017.132736368
2023-07-11T04:38:32.612Z,1016.827962276
2023-07-11T04:39:31.839Z,1016.827962276
2023-07-11T04:40:32.478Z,1016.726370912
2023-07-11T04:41:32.507Z,1016.9295536400001
2023-07-11T04:42:32.494Z,1016.9295536400001
2023-07-11T04:43:31.837Z,1016.9295536400001
2023-07-11T04:44:32.484Z,1017.031145004
2023-07-11T04:45:32.485Z,1017.031145004
2023-07-11T04:46:32.492Z,1016.9295536400001
2023-07-11T04:47:31.831Z,1016.9295536400001
2023-07-11T04:48:32.480Z,1016.9295536400001
2023-07-11T04:49:32.494Z,1016.827962276
2023-07-11T04:50:32.485Z,1016.6247795480001
2023-07-11T04:51:31.840Z,1016.6247795480001
2023-07-11T04:52:32.543Z,1016.9295536400001
2023-07-11T04:53:32.455Z,1016.726370912
2023-07-11T04:54:32.527Z,1016.827962276
2023-07-11T04:55:31.803Z,1016.827962276
2023-07-11T04:56:32.471Z,1016.827962276
2023-07-11T04:57:32.676Z,1017.031145004
2023-07-11T04:58:32.478Z,1016.9295536400001
2023-07-11T04:59:31.799Z,1016.9295536400001
2023-07-11T05:00:32.455Z,1016.726370912
2023-07-11T05:01:32.534Z,1016.726370912
2023-07-11T05:02:32.504Z,1016.6247795480001
2023-07-11T05:03:31.810Z,1016.6247795480001
2023-07-11T05:04:32.733Z,1017.031145004
2023-07-11T05:05:32.452Z,1016.9295536400001
2023-07-11T05:06:32.488Z,1016.827962276
2023-07-11T05:07:32.513Z,1016.9295536400001
2023-07-11T05:08:32.485Z,1017.031145004
2023-07-11T05:09:32.569Z,1017.132736368
2023-07-11T05:10:32.554Z,1016.827962276
2023-07-11T05:11:31.798Z,1016.827962276
2023-07-11T05:12:32.524Z,1016.827962276
2023-07-11T05:13:32.500Z,1016.827962276
2023-07-11T05:14:32.511Z,1016.726370912
2023-07-11T05:15:32.745Z,1016.726370912
2023-07-11T05:16:32.522Z,1016.827962276
2023-07-11T05:17:32.545Z,1016.9295536400001
2023-07-11T05:18:32.523Z,1016.827962276
2023-07-11T05:19:32.602Z,1016.9295536400001
2023-07-11T05:20:32.480Z,1017.031145004
2023-07-11T05:21:32.525Z,1017.031145004
2023-07-11T05:22:32.467Z,1016.9295536400001
2023-07-11T05:23:32.496Z,1016.9295536400001
2023-07-11T05:24:32.450Z,1016.9295536400001
2023-07-11T05:25:32.478Z,1017.031145004
2023-07-11T05:26:32.501Z,1016.827962276
2023-07-11T05:27:32.541Z,1016.827962276
2023-07-11T05:28:32.487Z,1016.9295536400001
2023-07-11T05:29:33.354Z,1016.726370912
2023-07-11T05:30:43.734Z,1016.827962276
2023-07-11T05:31:47.806Z,1017.031145004
2023-07-11T05:32:52.609Z,1016.827962276
2023-07-11T05:33:55.756Z,1016.9295536400001
2023-07-11T05:34:59.743Z,1017.031145004
2023-07-11T05:36:04.170Z,1016.9295536400001
2023-07-11T05:37:07.779Z,1017.031145004
2023-07-11T05:38:11.734Z,1017.031145004
2023-07-11T05:39:15.799Z,1017.031145004
2023-07-11T05:40:19.703Z,1016.9295536400001
2023-07-11T05:41:23.747Z,1017.031145004
2023-07-11T05:42:27.753Z,1017.031145004
2023-07-11T05:43:31.747Z,1017.2343277320001
2023-07-11T05:44:32.528Z,1017.031145004
2023-07-11T05:45:32.471Z,1016.827962276
2023-07-11T05:46:32.670Z,1016.9295536400001
2023-07-11T05:47:32.526Z,1017.031145004
2023-07-11T05:48:32.521Z,1016.9295536400001
2023-07-11T05:49:32.484Z,1016.9295536400001
2023-07-11T05:50:32.456Z,1017.031145004
2023-07-11T05:51:32.463Z,1017.2343277320001
2023-07-11T05:52:32.480Z,1017.132736368
2023-07-11T05:53:32.483Z,1017.2343277320001
2023-07-11T05:54:32.482Z,1017.031145004
2023-07-11T05:55:32.480Z,1016.827962276
2023-07-11T05:56:32.542Z,1016.9295536400001
2023-07-11T05:57:32.523Z,1017.132736368
2023-07-11T05:58:32.483Z,1017.132736368
2023-07-11T05:59:32.489Z,1017.2343277320001
2023-07-11T06:00:32.680Z,1016.827962276
2023-07-11T06:01:32.508Z,1017.132736368
2023-07-11T06:02:32.499Z,1017.132736368
2023-07-11T06:03:32.623Z,1017.031145004
2023-07-11T06:04:32.535Z,1016.9295536400001
2023-07-11T06:05:32.482Z,1017.2343277320001
2023-07-11T06:06:32.489Z,1017.031145004
2023-07-11T06:07:32.526Z,1017.335919096
2023-07-11T06:08:32.474Z,1017.2343277320001
2023-07-11T06:09:33.899Z,1017.132736368
2023-07-11T06:10:32.474Z,1017.031145004
2023-07-11T06:11:32.488Z,1017.335919096
2023-07-11T06:12:32.485Z,1017.2343277320001
2023-07-11T06:13:32.524Z,1017.132736368
2023-07-11T06:14:32.489Z,1017.132736368
2023-07-11T06:15:32.467Z,1017.031145004
2023-07-11T06:16:32.568Z,1017.335919096
2023-07-11T06:17:32.501Z,1017.132736368
2023-07-11T06:18:32.464Z,1017.031145004
2023-07-11T06:19:32.508Z,1017.2343277320001
2023-07-11T06:20:32.496Z,1017.2343277320001
2023-07-11T06:21:32.467Z,1017.2343277320001
2023-07-11T06:22:32.467Z,1016.9295536400001
2023-07-11T06:23:32.499Z,1017.132736368
2023-07-11T06:24:32.477Z,1017.132736368
2023-07-11T06:25:32.524Z,1016.9295536400001
2023-07-11T06:26:32.483Z,1017.031145004
2023-07-11T06:27:32.520Z,1016.9295536400001
2023-07-11T06:28:33.072Z,1017.132736368
2023-07-11T06:29:32.591Z,1017.2343277320001
2023-07-11T06:30:32.496Z,1017.031145004
2023-07-11T06:31:32.503Z,1016.9295536400001
2023-07-11T06:32:32.502Z,1016.726370912
2023-07-11T06:33:32.522Z,1017.132736368
2023-07-11T06:34:32.476Z,1016.827962276
2023-07-11T06:35:32.512Z,1017.132736368
2023-07-11T06:36:32.500Z,1017.132736368
2023-07-11T06:37:32.481Z,1016.9295536400001
2023-07-11T06:38:32.500Z,1016.827962276
2023-07-11T06:39:32.472Z,1016.827962276
2023-07-11T06:40:32.493Z,1017.031145004
2023-07-11T06:41:32.507Z,1016.6247795480001
2023-07-11T06:42:32.535Z,1016.726370912
2023-07-11T06:43:32.508Z,1017.132736368
2023-07-11T06:44:32.526Z,1016.9295536400001
2023-07-11T06:45:32.495Z,1016.726370912
2023-07-11T06:46:32.521Z,1016.726370912
2023-07-11T06:47:32.487Z,1016.6247795480001
2023-07-11T06:48:32.509Z,1016.726370912
2023-07-11T06:49:32.461Z,1016.827962276
2023-07-11T06:50:32.493Z,1016.9295536400001
2023-07-11T06:51:32.466Z,1017.031145004
2023-07-11T06:52:32.490Z,1016.827962276
2023-07-11T06:53:32.462Z,1017.031145004
2023-07-11T06:54:32.477Z,1016.827962276
2023-07-11T06:55:32.467Z,1016.827962276
2023-07-11T06:56:32.492Z,1017.031145004
2023-07-11T06:57:32.484Z,1016.9295536400001
2023-07-11T06:58:32.482Z,1016.726370912
2023-07-11T06:59:32.479Z,1017.132736368
2023-07-11T07:00:32.835Z,1016.9295536400001
2023-07-11T07:01:37.340Z,1017.031145004
2023-07-11T07:02:32.779Z,1016.827962276
2023-07-11T07:03:32.673Z,1016.827962276
2023-07-11T07:04:32.461Z,1017.031145004
2023-07-11T07:05:32.461Z,1017.031145004
2023-07-11T07:06:32.460Z,1017.031145004
2023-07-11T07:07:32.458Z,1016.9295536400001
2023-07-11T07:08:32.537Z,1016.9295536400001
2023-07-11T07:09:32.499Z,1016.6247795480001
2023-07-11T07:10:32.500Z,1016.6247795480001
2023-07-11T07:11:32.566Z,1016.9295536400001
2023-07-11T07:12:32.493Z,1017.132736368
2023-07-11T07:13:32.557Z,1016.827962276
2023-07-11T07:14:32.496Z,1016.9295536400001
2023-07-11T07:15:32.494Z,1016.827962276
2023-07-11T07:16:32.511Z,1016.827962276
2023-07-11T07:17:32.516Z,1017.031145004
2023-07-11T07:18:32.470Z,1016.6247795480001
2023-07-11T07:19:32.506Z,1016.726370912
2023-07-11T07:20:36.966Z,1016.827962276
2023-07-11T07:21:32.444Z,1016.827962276
2023-07-11T07:22:32.447Z,1016.9295536400001
2023-07-11T07:23:32.477Z,1016.827962276
2023-07-11T07:24:32.499Z,1016.827962276
2023-07-11T07:25:32.564Z,1016.827962276
2023-07-11T07:26:32.515Z,1016.726370912
2023-07-11T07:27:32.467Z,1016.726370912
2023-07-11T07:28:32.494Z,1016.726370912
2023-07-11T07:29:32.471Z,1016.726370912
2023-07-11T07:30:32.500Z,1016.827962276
2023-07-11T07:31:32.533Z,1016.9295536400001
2023-07-11T07:32:32.505Z,1016.6247795480001
2023-07-11T07:33:32.515Z,1016.6247795480001
2023-07-11T07:34:32.457Z,1016.726370912
2023-07-11T07:35:32.468Z,1016.6247795480001
2023-07-11T07:36:32.528Z,1016.827962276
2023-07-11T07:37:32.473Z,1016.827962276
2023-07-11T07:38:32.486Z,1016.6247795480001
2023-07-11T07:39:32.587Z,1016.9295536400001
2023-07-11T07:40:32.526Z,1016.726370912
2023-07-11T07:41:32.469Z,1016.6247795480001
2023-07-11T07:42:32.464Z,1016.827962276
2023-07-11T07:43:32.498Z,1016.726370912
2023-07-11T07:44:32.481Z,1016.726370912
2023-07-11T07:45:32.479Z,1016.726370912
2023-07-11T07:46:32.570Z,1016.726370912
2023-07-11T07:47:32.527Z,1016.726370912
2023-07-11T07:48:32.472Z,1016.523188184
2023-07-11T07:49:41.908Z,1016.6247795480001
2023-07-11T07:50:32.494Z,1016.523188184
2023-07-11T07:51:32.472Z,1016.726370912
2023-07-11T07:52:32.498Z,1016.827962276
2023-07-11T07:53:32.469Z,1016.726370912
2023-07-11T07:54:32.489Z,1016.726370912
2023-07-11T07:55:32.483Z,1016.726370912
2023-07-11T07:56:32.476Z,1016.523188184
2023-07-11T07:57:32.487Z,1016.726370912
2023-07-11T07:58:42.612Z,1016.726370912
2023-07-11T07:59:32.472Z,1016.6247795480001
2023-07-11T08:00:32.482Z,1016.726370912
2023-07-11T08:01:32.481Z,1016.523188184
2023-07-11T08:02:32.498Z,1016.6247795480001
2023-07-11T08:03:32.531Z,1016.827962276
2023-07-11T08:04:32.576Z,1016.726370912
2023-07-11T08:05:32.487Z,1016.726370912
2023-07-11T08:06:32.468Z,1016.6247795480001
2023-07-11T08:07:32.574Z,1016.9295536400001
2023-07-11T08:08:32.497Z,1016.6247795480001
2023-07-11T08:09:32.475Z,1016.726370912
2023-07-11T08:10:32.490Z,1016.6247795480001
2023-07-11T08:11:32.477Z,1016.523188184
2023-07-11T08:12:32.516Z,1016.523188184
2023-07-11T08:13:38.585Z,1016.827962276
2023-07-11T08:14:32.556Z,1016.726370912
2023-07-11T08:15:32.452Z,1016.726370912
2023-07-11T08:16:34.351Z,1016.726370912
2023-07-11T08:17:32.507Z,1016.523188184
2023-07-11T08:18:32.472Z,1016.6247795480001
2023-07-11T08:19:32.455Z,1016.827962276
2023-07-11T08:20:32.447Z,1016.6247795480001
2023-07-11T08:21:32.521Z,1016.6247795480001
2023-07-11T08:22:32.467Z,1016.6247795480001
2023-07-11T08:23:32.521Z,1016.523188184
2023-07-11T08:24:32.461Z,1016.6247795480001
2023-07-11T08:25:32.480Z,1016.726370912
2023-07-11T08:26:32.466Z,1016.6247795480001
2023-07-11T08:27:32.454Z,1016.6247795480001
2023-07-11T08:28:32.465Z,1016.523188184
2023-07-11T08:29:32.478Z,1016.726370912
2023-07-11T08:30:32.522Z,1016.726370912
2023-07-11T08:31:32.484Z,1016.726370912
2023-07-11T08:32:32.498Z,1016.6247795480001
2023-07-11T08:33:32.465Z,1016.523188184
2023-07-11T08:34:32.538Z,1016.6247795480001
2023-07-11T08:35:32.469Z,1016.827962276
2023-07-11T08:36:32.493Z,1016.726370912
2023-07-11T08:37:32.464Z,1016.827962276
2023-07-11T08:38:32.452Z,1016.726370912
2023-07-11T08:39:32.465Z,1016.726370912
2023-07-11T08:40:47.094Z,1016.726370912
2023-07-11T08:41:32.472Z,1017.031145004
2023-07-11T08:42:32.487Z,1016.726370912
2023-07-11T08:43:32.464Z,1016.726370912
2023-07-11T08:44:32.483Z,1017.031145004
2023-07-11T08:45:32.472Z,1016.827962276
2023-07-11T08:46:32.490Z,1016.6247795480001
2023-07-11T08:47:32.775Z,1016.6247795480001
2023-07-11T08:48:32.471Z,1016.726370912
2023-07-11T08:49:32.459Z,1016.9295536400001
2023-07-11T08:50:32.492Z,1016.827962276
2023-07-11T08:51:32.461Z,1016.9295536400001
2023-07-11T08:52:32.458Z,1016.827962276
2023-07-11T08:53:32.474Z,1016.9295536400001
2023-07-11T08:54:32.470Z,1016.9295536400001
2023-07-11T08:55:32.498Z,1016.9295536400001
2023-07-11T08:56:32.445Z,1016.827962276
2023-07-11T08:57:32.462Z,1016.726370912
2023-07-11T08:58:32.461Z,1016.6247795480001
2023-07-11T08:59:32.477Z,1016.827962276
2023-07-11T09:00:32.484Z,1016.827962276
2023-07-11T09:01:32.529Z,1016.726370912
2023-07-11T09:02:32.485Z,1016.9295536400001
2023-07-11T09:03:32.560Z,1016.726370912
2023-07-11T09:04:32.470Z,1016.9295536400001
2023-07-11T09:05:32.458Z,1016.9295536400001
2023-07-11T09:06:32.480Z,1016.6247795480001
2023-07-11T09:07:32.542Z,1016.9295536400001
2023-07-11T09:08:32.446Z,1016.6247795480001
2023-07-11T09:09:32.460Z,1017.031145004
2023-07-11T09:10:47.095Z,1016.827962276
2023-07-11T09:11:32.547Z,1016.9295536400001
2023-07-11T09:12:32.462Z,1016.9295536400001
2023-07-11T09:13:32.514Z,1016.523188184
2023-07-11T09:14:32.437Z,1016.726370912
2023-07-11T09:15:32.431Z,1016.827962276
2023-07-11T09:16:32.494Z,1016.9295536400001
2023-07-11T09:17:32.481Z,1016.726370912
2023-07-11T09:18:33.621Z,1016.827962276
2023-07-11T09:19:32.482Z,1017.031145004
2023-07-11T09:20:32.486Z,1016.9295536400001
2023-07-11T09:21:32.510Z,1017.031145004
2023-07-11T09:22:32.475Z,1016.6247795480001
2023-07-11T09:23:38.955Z,1016.9295536400001
2023-07-11T09:24:32.864Z,1017.031145004
2023-07-11T09:25:32.451Z,1016.6247795480001
2023-07-11T09:26:32.472Z,1016.827962276
2023-07-11T09:27:32.457Z,1016.827962276
2023-07-11T09:28:32.491Z,1016.9295536400001
2023-07-11T09:29:32.516Z,1016.9295536400001
2023-07-11T09:30:32.442Z,1016.827962276
2023-07-11T09:31:32.616Z,1016.827962276
2023-07-11T09:32:32.607Z,1016.827962276
2023-07-11T09:33:32.497Z,1016.9295536400001
2023-07-11T09:34:32.449Z,1017.031145004
2023-07-11T09:35:32.455Z,1016.9295536400001
2023-07-11T09:36:32.481Z,1017.132736368
2023-07-11T09:37:32.569Z,1017.031145004
2023-07-11T09:38:32.443Z,1016.827962276